Pinconning, MI (48650)

10:03 AM EDT on April 30, 2017 (GMT -0400)
Pinconning farm country, (Pintucky Hawg Farm) | | Change Station

Elev 623 ft 43.82 °N, 84.03 °W | Updated 22 seconds ago

Mostly Cloudy
Mostly Cloudy
40.5 °F
Feels Like 32 °F
N
16.0
Wind Variable Wind from ENE

Today
High -- | Low -- °F
--% Chance of Precip.
Yesterday
High -- | Low -- °F
Precip. -- in
Pressure 30.08 in
Visibility 10.0 miles
Clouds Overcast 700 ft
Windchill 32 °F
Dew Point 40 °F
Humidity 98%
Rainfall 0.25 in
Snow Depth Not available.
6:28 AM 8:37 PM
Waxing Crescent, 23% visible
METAR KIKW 301333Z AUTO 05011G14KT 10SM DZ OVC007 05/04 A3008 RMK AO2 T00530036
Pressure 30.08 in
Visibility 10.0 miles
Clouds Overcast 700 ft
Windchill 32 °F
Dew Point 40 °F
Humidity 98%
Rainfall 0.25 in
Snow Depth Not available.
6:28 AM 8:37 PM
Waxing Crescent, 23% visible
METAR KIKW 301333Z AUTO 05011G14KT 10SM DZ OVC007 05/04 A3008 RMK AO2 T00530036

Get Severe Weather Alerts

Thanks for signing up!

Be on the lookout for a verification email in your inbox.

You'll start receiving the daily forecast at 8 AM.

×

10-Day Weather Forecast

Almanac

Astronomy

Apr. 30, 2017 Rise Set
Actual Time
Civil Twilight
Nautical Twilight
Astronomical Twilight
Moon
Length of Visible Light
Length of Day
Tomorrow will be .
, % of the Moon is Illuminated

Today's Extremes

State Highs State Lows

Community

WunderPhotos

WunderBlog® & News

Nearby

Air Quality

  Air Quality AQ Index Pollutant
Not available.

Snow Depth

Station Depth Elevation

Earthquake Activity

City Distance Mag. Time & Date
Minimum magnitude displayed is 2.5.

Coastal Water Temperatures

Place Temperature

Stations

Nearby Weather Stations

Station Location Temp. Windchill Dew Point Humidity Wind Precip. Elev Updated Type
                   

Watches & Warnings

There are currently no watches in effect.